Time;durP1;ratioP1;P1;durP2;ratioP2;P2;SDS_P1;SDS_P2;PMS_P1;PMS_P2;Temp;Humidity;BMP_temperature;BMP_pressure;BME280_temperature;BME280_humidity;BME280_pressure;Samples;Min_cycle;Max_cycle;Signal;HPM_P1;HPM_P2
2023/05/08 00:01:05;;;;;;;23.65;15.80;;;;;;;14.33;100.00;102021.16;4982638;28;20545;-92
2023/05/08 00:03:30;;;;;;;23.48;15.82;;;;;;;14.35;100.00;102023.75;4983561;28;20059;-92
2023/05/08 00:05:56;;;;;;;23.65;15.95;;;;;;;14.33;100.00;102008.13;4983518;28;20029;-93
2023/05/08 00:08:21;;;;;;;22.83;17.13;;;;;;;14.32;100.00;102019.47;4982039;28;20572;-92
2023/05/08 00:10:47;;;;;;;21.23;16.50;;;;;;;14.35;100.00;102021.13;4980888;28;20041;-85
2023/05/08 00:13:12;;;;;;;23.07;15.97;;;;;;;14.34;100.00;102024.63;4982084;28;20030;-86
2023/05/08 00:15:37;;;;;;;21.75;16.75;;;;;;;14.33;100.00;102017.72;4982082;28;20377;-85
2023/05/08 00:18:03;;;;;;;21.75;16.98;;;;;;;14.36;100.00;102012.44;4983306;28;20454;-86
2023/05/08 00:20:28;;;;;;;23.08;16.73;;;;;;;14.37;100.00;102014.16;4983007;28;20027;-86
2023/05/08 00:22:54;;;;;;;21.45;16.55;;;;;;;14.37;100.00;102017.63;4998333;28;20027;-86
2023/05/08 00:25:20;;;;;;;23.92;16.67;;;;;;;14.37;100.00;102014.16;4982379;28;20030;-85
2023/05/08 00:27:45;;;;;;;27.07;17.03;;;;;;;14.37;100.00;102009.78;4979468;28;20561;-85
2023/05/08 00:30:11;;;;;;;22.73;17.17;;;;;;;14.35;100.00;102005.50;4979994;28;20308;-85
2023/05/08 00:32:36;;;;;;;24.20;17.75;;;;;;;14.31;100.00;102002.09;4981080;28;20034;-86
2023/05/08 00:35:02;;;;;;;22.40;16.27;;;;;;;14.34;100.00;102011.59;4982152;28;20038;-85
2023/05/08 00:37:27;;;;;;;24.67;16.63;;;;;;;14.33;100.00;102009.91;4981959;28;20903;-85
2023/05/08 00:39:52;;;;;;;22.70;16.53;;;;;;;14.33;100.00;102018.56;4983318;28;20031;-93
2023/05/08 00:42:18;;;;;;;23.35;17.13;;;;;;;14.31;100.00;102017.75;4982547;28;20314;-93
2023/05/08 00:44:44;;;;;;;22.70;16.58;;;;;;;14.29;100.00;102021.25;4985384;28;20710;-92
2023/05/08 00:47:09;;;;;;;23.25;17.58;;;;;;;14.27;100.00;102012.59;4982880;28;20022;-93
2023/05/08 00:49:35;;;;;;;22.85;16.48;;;;;;;14.26;100.00;102010.91;4982341;28;20029;-93
2023/05/08 00:52:02;;;;;;;21.08;15.60;;;;;;;14.18;100.00;102011.06;4984592;28;20034;-93
2023/05/08 00:54:28;;;;;;;22.13;16.13;;;;;;;14.17;100.00;102007.59;4984687;28;20084;-92
2023/05/08 00:56:54;;;;;;;22.23;15.85;;;;;;;14.14;100.00;102012.84;4988564;28;20034;-93
2023/05/08 00:59:21;;;;;;;21.10;15.93;;;;;;;14.10;100.00;102010.34;4987506;28;20053;-92
2023/05/08 01:01:48;;;;;;;21.13;16.38;;;;;;;14.08;100.00;102010.38;4983639;28;20030;-91
2023/05/08 01:04:13;;;;;;;23.02;16.17;;;;;;;14.02;100.00;102005.28;4986833;28;20026;-92
2023/05/08 01:06:39;;;;;;;23.20;16.08;;;;;;;14.02;100.00;102007.03;4964169;28;20146;-92
2023/05/08 01:09:05;;;;;;;21.48;16.23;;;;;;;13.98;100.00;102011.47;4985437;28;20516;-93
2023/05/08 01:11:43;;;;;;;23.55;15.70;;;;;;;13.95;100.00;102005.41;4985922;28;20072;-92
2023/05/08 01:14:19;;;;;;;21.05;14.75;;;;;;;13.96;100.00;102004.53;4988145;28;20047;-93
2023/05/08 01:16:47;;;;;;;19.63;14.95;;;;;;;13.97;100.00;102004.53;4988213;28;20037;-92
2023/05/08 01:19:21;;;;;;;22.73;15.55;;;;;;;13.96;100.00;101997.59;4988406;28;20096;-91
2023/05/08 01:21:53;;;;;;;;;;;;;;;14.03;100.00;101999.19;4988724;28;20109;-92
2023/05/08 01:24:28;;;;;;;20.08;15.13;;;;;;;13.97;100.00;101998.44;4984097;28;19914;-92
2023/05/08 01:27:12;;;;;;;19.33;15.10;;;;;;;13.98;100.00;102002.78;5003344;28;21417;-92
2023/05/08 01:30:07;;;;;;;20.85;15.90;;;;;;;13.98;100.00;102008.84;5002964;28;20074;-92
2023/05/08 01:32:40;;;;;;;22.60;16.95;;;;;;;13.95;100.00;102000.22;4987629;28;20022;-93
2023/05/08 01:35:06;;;;;;;21.17;16.13;;;;;;;13.95;100.00;102011.50;4984945;28;20422;-92
2023/05/08 01:37:38;;;;;;;20.98;15.82;;;;;;;13.93;100.00;102015.88;4986169;28;20093;-93
2023/05/08 01:40:11;;;;;;;22.42;17.27;;;;;;;13.91;100.00;102004.63;4986404;28;20472;-93
2023/05/08 01:42:49;;;;;;;20.48;16.23;;;;;;;13.92;100.00;102002.91;4986329;28;20221;-93
2023/05/08 01:45:24;;;;;;;23.65;16.40;;;;;;;13.93;100.00;102013.25;5000115;28;20054;-92
2023/05/08 01:48:12;;;;;;;21.27;16.30;;;;;;;13.89;100.00;101995.13;4987041;28;20026;-93
2023/05/08 01:50:45;;;;;;;21.55;15.35;;;;;;;13.91;100.00;101995.97;4984424;28;20030;-93
2023/05/08 01:53:23;;;;;;;18.27;14.75;;;;;;;13.93;100.00;101999.38;4988148;28;20057;-92
2023/05/08 01:55:52;;;;;;;20.75;15.73;;;;;;;13.91;100.00;101998.56;4982505;28;20030;-92
2023/05/08 01:58:19;;;;;;;22.05;16.35;;;;;;;13.94;100.00;102003.69;4987154;28;20129;-92
2023/05/08 02:00:46;;;;;;;23.80;17.27;;;;;;;13.90;100.00;102008.13;4986070;28;20391;-92
2023/05/08 02:03:13;;;;;;;21.77;16.65;;;;;;;13.90;100.00;102005.53;4986134;28;20097;-92
2023/05/08 02:05:40;;;;;;;21.15;16.08;;;;;;;13.91;100.00;102015.06;4988835;28;20126;-92
2023/05/08 02:08:08;;;;;;;21.58;16.95;;;;;;;13.91;100.00;102011.59;4993525;28;20042;-92
2023/05/08 02:10:35;;;;;;;22.85;16.52;;;;;;;13.92;100.00;102015.94;4991250;28;20033;-93
2023/05/08 02:13:03;;;;;;;24.42;17.63;;;;;;;13.91;100.00;102017.66;4986972;28;20034;-92
2023/05/08 02:15:30;;;;;;;25.15;18.77;;;;;;;13.94;100.00;102025.41;5000171;28;20116;-92
2023/05/08 02:17:57;;;;;;;23.13;17.27;;;;;;;13.93;100.00;102018.47;4985727;28;20117;-92
2023/05/08 02:20:25;;;;;;;21.48;16.90;;;;;;;13.93;100.00;102025.44;4984872;28;20019;-92
2023/05/08 02:22:51;;;;;;;22.75;17.08;;;;;;;13.95;100.00;102021.06;4984761;28;20113;-93
2023/05/08 02:25:17;;;;;;;23.85;17.02;;;;;;;13.93;100.00;102017.63;4984088;28;20122;-92
2023/05/08 02:27:46;;;;;;;23.05;17.30;;;;;;;13.92;100.00;102019.38;4987218;28;21147;-92
2023/05/08 02:30:13;;;;;;;23.63;17.10;;;;;;;13.95;100.00;102021.06;4984367;28;20062;-92
2023/05/08 02:32:42;;;;;;;23.05;16.80;;;;;;;13.92;100.00;102015.94;5000932;28;20022;-92
2023/05/08 02:35:09;;;;;;;25.48;18.85;;;;;;;13.87;100.00;102012.53;4982766;28;20036;-92
2023/05/08 02:37:36;;;;;;;24.73;18.60;;;;;;;13.94;100.00;102020.19;4981168;28;20037;-92
2023/05/08 02:40:05;;;;;;;25.85;18.45;;;;;;;13.86;100.00;102009.06;4983849;28;20031;-91
2023/05/08 02:42:30;;;;;;;25.25;18.02;;;;;;;13.95;100.00;102018.47;4985216;28;20049;-92
2023/05/08 02:44:56;;;;;;;26.85;18.50;;;;;;;13.94;100.00;102016.72;4983653;28;20164;-91
2023/05/08 02:47:26;;;;;;;25.13;18.67;;;;;;;13.93;100.00;102017.63;4985906;28;20064;-91
2023/05/08 02:50:02;;;;;;;23.52;17.95;;;;;;;13.91;100.00;102022.88;4984460;28;20395;-85
2023/05/08 02:52:48;;;;;;;23.35;16.70;;;;;;;13.94;100.00;102024.56;4983595;28;20035;-85
2023/05/08 02:55:33;;;;;;;20.75;15.77;;;;;;;13.92;100.00;102029.78;4983639;28;21393;-85
2023/05/08 02:58:08;;;;;;;24.50;17.27;;;;;;;13.87;100.00;102010.78;4984034;28;20563;-85
2023/05/08 03:00:41;;;;;;;24.80;17.77;;;;;;;13.88;100.00;102020.31;4982732;28;20403;-86
2023/05/08 03:03:25;;;;;;;25.30;17.15;;;;;;;13.88;100.00;102022.94;4978581;28;20034;-85
2023/05/08 03:05:54;;;;;;;20.80;15.55;;;;;;;13.87;100.00;102022.94;4980516;28;20452;-85
2023/05/08 03:08:24;;;;;;;22.05;16.88;;;;;;;13.86;100.00;102022.09;4982450;28;20180;-85
2023/05/08 03:10:53;;;;;;;21.08;16.17;;;;;;;13.85;100.00;102025.59;4996391;28;20557;-85
2023/05/08 03:13:20;;;;;;;23.20;16.17;;;;;;;13.82;100.00;102023.03;4984636;28;20491;-85
2023/05/08 03:15:51;;;;;;;25.05;17.15;;;;;;;13.82;100.00;102018.69;4983944;28;20052;-85
2023/05/08 03:18:20;;;;;;;23.52;17.75;;;;;;;13.79;100.00;102023.94;4984142;28;20029;-86
2023/05/08 03:20:48;;;;;;;22.90;17.15;;;;;;;13.79;100.00;102017.88;4983150;28;20030;-91
2023/05/08 03:23:17;;;;;;;22.77;15.98;;;;;;;13.79;100.00;102020.47;4983307;28;20022;-92
2023/05/08 03:25:43;;;;;;;22.63;16.98;;;;;;;13.80;100.00;102019.59;4998090;28;20046;-92
2023/05/08 03:28:10;;;;;;;24.40;16.92;;;;;;;13.79;100.00;102026.56;4983095;28;20030;-92
2023/05/08 03:30:39;;;;;;;22.55;16.63;;;;;;;13.74;100.00;102014.50;4984620;28;20123;-91
2023/05/08 03:33:06;;;;;;;23.02;16.88;;;;;;;13.71;100.00;102015.44;4980718;28;20022;-91
2023/05/08 03:35:35;;;;;;;23.02;16.58;;;;;;;13.72;100.00;102024.09;4981522;28;20026;-91
2023/05/08 03:38:00;;;;;;;24.80;18.35;;;;;;;13.70;100.00;102012.84;4982398;28;20030;-92
2023/05/08 03:40:26;;;;;;;27.25;18.95;;;;;;;13.66;100.00;102011.16;4985264;28;20037;-91
2023/05/08 03:42:52;;;;;;;26.60;18.73;;;;;;;13.66;100.00;102013.78;4983429;28;20118;-91
2023/05/08 03:45:19;;;;;;;23.40;15.93;;;;;;;13.62;100.00;102010.38;4983047;28;20030;-91
2023/05/08 03:47:45;;;;;;;28.48;19.27;;;;;;;13.62;100.00;102006.91;4984563;28;20045;-91
2023/05/08 03:50:10;;;;;;;29.52;18.92;;;;;;;13.59;100.00;101999.13;4981416;28;20104;-91
2023/05/08 03:52:37;;;;;;;26.15;18.15;;;;;;;13.54;100.00;101998.34;4984590;28;20046;-91
2023/05/08 03:55:03;;;;;;;25.65;17.95;;;;;;;13.55;100.00;102000.94;4982067;28;20030;-91
2023/05/08 03:57:38;;;;;;;27.38;17.90;;;;;;;13.46;100.00;101998.50;4981760;28;20044;-91
2023/05/08 04:00:13;;;;;;;28.02;18.63;;;;;;;13.49;100.00;102002.78;4982612;28;20483;-91
2023/05/08 04:03:12;;;;;;;28.65;19.25;;;;;;;13.45;100.00;102005.44;4982747;28;20038;-91
2023/05/08 04:05:49;;;;;;;24.85;17.08;;;;;;;13.40;100.00;102017.69;4980689;28;20022;-91
2023/05/08 04:08:19;;;;;;;27.90;18.80;;;;;;;13.37;100.00;102017.72;4982209;28;20033;-91
2023/05/08 04:10:49;;;;;;;29.17;19.55;;;;;;;13.33;100.00;102015.22;4980569;28;20506;-91
2023/05/08 04:13:21;;;;;;;28.88;19.70;;;;;;;13.29;100.00;102017.00;4984584;28;20026;-91
2023/05/08 04:15:53;;;;;;;29.27;18.73;;;;;;;13.30;100.00;102012.66;4980700;28;20026;-91
2023/05/08 04:18:27;;;;;;;27.70;19.05;;;;;;;13.31;100.00;102015.22;4983089;28;20441;-92
2023/05/08 04:20:54;;;;;;;28.02;18.73;;;;;;;13.30;100.00;102012.66;4979918;28;20026;-85
2023/05/08 04:23:21;;;;;;;29.23;19.05;;;;;;;13.30;100.00;102015.28;4996489;28;20030;-85
2023/05/08 04:25:50;;;;;;;30.60;20.17;;;;;;;13.29;100.00;102019.63;4979759;28;20046;-85
2023/05/08 04:28:16;;;;;;;28.00;19.33;;;;;;;13.31;100.00;102012.63;4981392;28;20026;-84
2023/05/08 04:30:42;;;;;;;29.27;18.98;;;;;;;13.34;100.00;102024.75;4983381;28;20526;-85
2023/05/08 04:33:08;;;;;;;29.15;19.45;;;;;;;13.38;100.00;102019.44;4981051;28;20125;-85
2023/05/08 04:35:33;;;;;;;27.48;18.77;;;;;;;13.38;100.00;102018.59;4985272;28;20495;-85
2023/05/08 04:37:59;;;;;;;29.33;19.05;;;;;;;13.44;100.00;102023.72;4986226;28;20125;-85
2023/05/08 04:40:25;;;;;;;30.35;19.23;;;;;;;13.46;100.00;102027.13;4985620;28;20109;-85
2023/05/08 04:42:50;;;;;;;29.55;19.80;;;;;;;13.50;100.00;102026.22;4986280;28;20034;-85
2023/05/08 04:45:16;;;;;;;32.05;21.25;;;;;;;13.55;100.00;102031.34;4982744;28;20041;-85
2023/05/08 04:47:41;;;;;;;31.98;20.58;;;;;;;13.57;100.00;102038.25;4985473;28;20038;-86
2023/05/08 04:50:07;;;;;;;26.50;17.83;;;;;;;13.62;100.00;102032.97;4985186;28;20584;-86
2023/05/08 04:52:32;;;;;;;28.77;19.55;;;;;;;13.66;100.00;102040.69;4987075;28;20050;-86
2023/05/08 04:54:58;;;;;;;34.47;22.50;;;;;;;13.65;100.00;102033.75;5000387;28;20040;-86
2023/05/08 04:57:23;;;;;;;37.05;23.00;;;;;;;13.66;100.00;102030.25;4987149;28;20078;-86
2023/05/08 04:59:49;;;;;;;31.95;20.63;;;;;;;13.78;100.00;102037.84;4984820;28;20034;-86
2023/05/08 05:02:14;;;;;;;35.55;22.42;;;;;;;13.80;100.00;102041.31;4984196;28;20022;-85
2023/05/08 05:04:40;;;;;;;35.55;21.88;;;;;;;13.89;100.00;102036.81;4986012;28;20022;-86
2023/05/08 05:07:05;;;;;;;35.72;22.50;;;;;;;13.93;100.00;102041.06;4985750;28;20057;-86
2023/05/08 05:09:35;;;;;;;37.35;22.35;;;;;;;14.00;100.00;102047.91;4984580;28;20050;-86
2023/05/08 05:12:04;;;;;;;35.42;21.27;;;;;;;14.07;100.00;102049.50;4984816;28;20495;-86
2023/05/08 05:14:29;;;;;;;37.45;23.90;;;;;;;14.09;100.00;102045.13;4986587;28;20165;-86
2023/05/08 05:16:55;;;;;;;35.63;22.20;;;;;;;14.18;100.00;102053.66;4984379;28;20054;-86
2023/05/08 05:19:20;;;;;;;37.05;22.85;;;;;;;14.22;100.00;102047.47;4987581;28;20558;-86
2023/05/08 05:21:46;;;;;;;35.17;21.95;;;;;;;14.28;100.00;102053.44;4986867;28;20571;-86
2023/05/08 05:24:11;;;;;;;37.13;23.15;;;;;;;14.33;100.00;102059.47;4986767;28;20022;-86
2023/05/08 05:26:36;;;;;;;41.22;25.27;;;;;;;14.38;100.00;102057.66;4986298;28;20399;-86
2023/05/08 05:29:02;;;;;;;40.90;26.13;;;;;;;14.47;100.00;102062.66;4985526;28;20101;-86
2023/05/08 05:31:28;;;;;;;41.85;26.77;;;;;;;14.47;100.00;102052.22;4985904;28;20035;-86
2023/05/08 05:33:53;;;;;;;44.42;28.75;;;;;;;14.61;100.00;102069.31;4982782;28;20081;-86
2023/05/08 05:36:19;;;;;;;51.42;31.60;;;;;;;14.68;100.00;102070.03;4986190;28;20034;-86
2023/05/08 05:38:44;;;;;;;51.70;31.10;;;;;;;14.78;100.00;102071.59;4984917;28;20398;-86
2023/05/08 05:41:10;;;;;;;54.63;33.95;;;;;;;14.83;100.00;102077.56;4983009;28;20026;-86
2023/05/08 05:43:35;;;;;;;54.17;33.53;;;;;;;14.86;100.00;102079.25;4967281;28;20027;-86
2023/05/08 05:46:05;;;;;;;58.07;35.93;;;;;;;14.86;100.00;102080.13;4983512;28;20380;-86
2023/05/08 05:48:30;;;;;;;55.80;34.80;;;;;;;14.86;100.00;102077.50;4982495;28;20347;-85
2023/05/08 05:50:56;;;;;;;57.03;36.00;;;;;;;14.87;100.00;102076.63;4986033;28;20030;-86
2023/05/08 05:53:22;;;;;;;56.30;34.75;;;;;;;14.92;100.00;102079.97;4979711;28;20058;-86
2023/05/08 05:55:47;;;;;;;60.20;36.83;;;;;;;14.95;100.00;102092.09;4978885;28;20518;-86
2023/05/08 05:58:13;;;;;;;63.28;38.17;;;;;;;14.94;100.00;102090.41;4995709;28;20101;-86
2023/05/08 06:00:38;;;;;;;59.97;37.33;;;;;;;14.89;100.00;102076.56;4982320;28;21066;-92
2023/05/08 06:03:04;;;;;;;63.17;38.22;;;;;;;14.90;100.00;102065.22;4985433;28;20592;-92
2023/05/08 06:05:29;;;;;;;61.67;38.53;;;;;;;14.89;100.00;102069.59;4982972;28;20034;-93
2023/05/08 06:07:56;;;;;;;64.45;38.25;;;;;;;14.99;100.00;102092.00;4983683;28;20798;-92
2023/05/08 06:10:21;;;;;;;64.03;38.00;;;;;;;15.03;100.00;102095.41;4985383;28;20022;-92
2023/05/08 06:12:47;;;;;;;64.75;38.60;;;;;;;14.96;100.00;102078.16;4984298;28;20431;-92
2023/05/08 06:15:13;;;;;;;57.78;36.03;;;;;;;15.04;100.00;102076.22;4984398;28;20909;-93
2023/05/08 06:17:39;;;;;;;63.60;38.40;;;;;;;15.15;100.00;102095.13;4986463;28;20041;-92
2023/05/08 06:20:06;;;;;;;62.70;38.00;;;;;;;15.10;100.00;102077.84;4988149;28;20030;-92
2023/05/08 06:22:31;;;;;;;64.65;37.17;;;;;;;15.21;100.00;102087.16;4986506;28;20022;-93
2023/05/08 06:24:57;;;;;;;63.67;38.97;;;;;;;15.24;100.00;102083.59;4986612;28;20026;-93
2023/05/08 06:27:23;;;;;;;62.65;39.10;;;;;;;15.26;100.00;102082.69;4986005;28;20027;-93
2023/05/08 06:29:51;;;;;;;62.88;37.67;;;;;;;15.32;100.00;102079.94;4985314;28;20112;-92
2023/05/08 06:32:17;;;;;;;67.10;39.83;;;;;;;15.38;100.00;102077.16;4986447;28;20096;-93
2023/05/08 06:34:42;;;;;;;62.60;37.95;;;;;;;15.40;100.00;102070.16;4986201;28;20030;-93
2023/05/08 06:37:11;;;;;;;64.85;38.53;;;;;;;15.49;100.00;102073.47;4985878;28;20054;-95
2023/05/08 06:39:36;;;;;;;64.55;39.30;;;;;;;15.53;100.00;102081.22;4986103;28;20105;-94
2023/05/08 06:42:05;;;;;;;64.10;39.35;;;;;;;15.59;100.00;102086.28;4982466;28;20034;-93
2023/05/08 06:44:31;;;;;;;65.32;38.67;;;;;;;15.61;100.00;102091.47;4980950;28;20026;-94
2023/05/08 06:46:56;;;;;;;60.88;38.03;;;;;;;15.56;100.00;102090.75;4980453;28;20040;-93
2023/05/08 06:49:25;;;;;;;65.13;38.63;;;;;;;15.56;100.00;102090.75;4977996;28;20046;-92
2023/05/08 06:51:50;;;;;;;64.30;39.33;;;;;;;15.62;100.00;102101.03;4980819;28;20034;-92
2023/05/08 06:54:16;;;;;;;61.90;37.70;;;;;;;15.59;100.00;102098.50;4986202;28;20100;-95
2023/05/08 06:56:41;;;;;;;62.47;38.15;;;;;;;15.59;100.00;102095.88;4986771;28;20030;-92
2023/05/08 06:59:07;;;;;;;62.00;38.50;;;;;;;15.55;100.00;102094.25;4987377;28;20026;-94
2023/05/08 07:01:32;;;;;;;63.53;39.05;;;;;;;15.57;100.00;102087.19;4984845;28;20026;-93
2023/05/08 07:03:57;;;;;;;61.33;37.55;;;;;;;15.66;100.00;102100.91;4984041;28;20276;-92
2023/05/08 07:06:23;;;;;;;64.47;38.00;;;;;;;15.64;100.00;102080.94;4980471;28;20038;-92
2023/05/08 07:08:48;;;;;;;64.40;39.30;;;;;;;15.68;100.00;102083.44;4981747;28;20845;-87
2023/05/08 07:11:14;;;;;;;66.28;40.53;;;;;;;15.83;100.00;102104.88;4979457;28;20034;-87
2023/05/08 07:13:42;;;;;;;63.72;38.83;;;;;;;15.86;100.00;102102.16;4984848;28;20034;-87
2023/05/08 07:16:11;;;;;;;67.72;40.15;;;;;;;15.84;100.00;102096.97;4983345;28;20487;-88
2023/05/08 07:18:37;;;;;;;63.00;39.38;;;;;;;15.90;100.00;102103.81;4984213;28;20192;-87
2023/05/08 07:21:03;;;;;;;67.10;39.97;;;;;;;15.94;100.00;102118.53;4982825;28;21006;-87
2023/05/08 07:23:31;;;;;;;65.18;40.47;;;;;;;15.92;100.00;102112.47;4985064;28;20041;-88
2023/05/08 07:25:57;;;;;;;63.35;39.15;;;;;;;15.92;100.00;102112.47;4984033;28;20404;-88
2023/05/08 07:28:25;;;;;;;64.60;39.83;;;;;;;15.91;100.00;102115.97;4984065;28;20030;-87
2023/05/08 07:30:50;;;;;;;61.63;38.55;;;;;;;15.90;100.00;102120.34;4983198;28;20026;-88
2023/05/08 07:33:19;;;;;;;60.83;37.45;;;;;;;15.84;100.00;102123.13;4982764;28;20030;-87
2023/05/08 07:35:44;;;;;;;62.95;38.17;;;;;;;15.79;100.00;102122.38;4984179;28;20034;-85
2023/05/08 07:38:15;;;;;;;60.47;37.40;;;;;;;15.74;100.00;102117.28;4982436;28;20026;-86
2023/05/08 07:40:40;;;;;;;61.80;37.25;;;;;;;15.73;100.00;102114.69;4983856;28;20160;-85
2023/05/08 07:43:06;;;;;;;64.57;38.15;;;;;;;15.72;100.00;102112.97;4983251;28;20185;-86
2023/05/08 07:45:33;;;;;;;57.53;34.97;;;;;;;15.76;100.00;102119.88;4983849;28;20633;-87
2023/05/08 07:47:59;;;;;;;59.45;36.15;;;;;;;15.69;100.00;102108.66;4983586;28;20109;-87
2023/05/08 07:50:25;;;;;;;62.20;37.22;;;;;;;15.65;100.00;102096.59;4984394;28;20129;-87
2023/05/08 07:52:51;;;;;;;60.90;37.15;;;;;;;15.63;100.00;102095.75;4999329;28;20128;-87
2023/05/08 07:55:17;;;;;;;63.33;37.75;;;;;;;15.61;100.00;102094.09;4982424;28;20037;-87
2023/05/08 07:57:45;;;;;;;65.35;38.75;;;;;;;15.62;100.00;102101.03;4982941;28;20026;-88
2023/05/08 08:00:13;;;;;;;65.05;37.05;;;;;;;15.72;100.00;102107.75;4984917;28;20376;-86
2023/05/08 08:02:39;;;;;;;67.13;38.00;;;;;;;15.59;100.00;102082.81;4985150;28;20475;-86
2023/05/08 08:05:05;;;;;;;66.53;38.70;;;;;;;15.66;100.00;102093.06;4984504;28;20057;-86
2023/05/08 08:07:33;;;;;;;65.82;37.85;;;;;;;15.81;100.00;102102.28;4982883;28;20095;-87
2023/05/08 08:10:00;;;;;;;67.22;38.95;;;;;;;15.90;100.00;102106.44;4985188;28;20519;-92
2023/05/08 08:12:26;;;;;;;66.72;39.53;;;;;;;15.93;100.00;102098.50;5001522;28;20034;-92
2023/05/08 08:14:52;;;;;;;69.07;39.70;;;;;;;16.00;100.00;102095.69;4981978;28;20125;-92
2023/05/08 08:17:17;;;;;;;66.47;38.45;;;;;;;16.05;100.00;102093.81;4985238;28;20109;-92
2023/05/08 08:19:43;;;;;;;65.53;38.35;;;;;;;16.09;100.00;102092.84;4985520;28;20412;-92
2023/05/08 08:22:08;;;;;;;65.47;38.67;;;;;;;16.26;100.00;102107.22;4985042;28;20022;-92
2023/05/08 08:24:34;;;;;;;66.32;37.75;;;;;;;16.17;100.00;102085.63;4984855;28;20041;-93
2023/05/08 08:26:59;;;;;;;64.07;38.13;;;;;;;16.20;100.00;102090.78;4984249;28;20494;-94
2023/05/08 08:29:25;;;;;;;64.30;37.30;;;;;;;16.35;100.00;102102.59;4985389;28;20061;-94
2023/05/08 08:31:51;;;;;;;69.13;38.30;;;;;;;16.46;100.00;102118.84;4983885;28;20018;-94
2023/05/08 08:34:16;;;;;;;61.35;36.70;;;;;;;16.41;100.00;102099.81;4983703;28;20022;-94
2023/05/08 08:36:42;;;;;;;59.42;35.92;;;;;;;16.48;100.00;102100.50;4984517;28;20056;-93
2023/05/08 08:39:07;;;;;;;64.57;36.63;;;;;;;16.56;100.00;102098.53;4983657;28;20077;-92
2023/05/08 08:41:33;;;;;;;63.97;37.00;;;;;;;16.63;100.00;102096.63;4980614;28;20044;-92
2023/05/08 08:44:01;;;;;;;60.58;36.78;;;;;;;16.77;100.00;102091.84;4983521;28;20030;-93
2023/05/08 08:46:27;;;;;;;62.05;36.47;;;;;;;16.87;100.00;102088.03;4982644;28;20030;-93
2023/05/08 08:48:55;;;;;;;60.47;36.10;;;;;;;16.91;100.00;102090.53;4985209;28;20032;-93
2023/05/08 08:51:31;;;;;;;58.65;35.45;;;;;;;16.97;100.00;102100.81;5000027;28;20030;-93
2023/05/08 08:54:11;;;;;;;63.47;37.38;;;;;;;17.28;100.00;102108.59;4985048;28;20042;-93
2023/05/08 08:56:39;;;;;;;65.80;37.75;;;;;;;17.45;100.00;102092.34;4985070;28;20054;-93
2023/05/08 08:59:06;;;;;;;67.78;39.30;;;;;;;17.84;100.00;102098.06;4985055;28;20034;-93
2023/05/08 09:01:40;;;;;;;69.80;38.90;;;;;;;18.53;100.00;102109.63;4986515;28;20057;-93
2023/05/08 09:04:06;;;;;;;55.20;34.53;;;;;;;18.90;100.00;102083.69;4984367;28;20439;-93
2023/05/08 09:06:35;;;;;;;52.90;33.15;;;;;;;19.18;100.00;102093.13;4985193;28;20480;-94
2023/05/08 09:09:01;;;;;;;51.60;33.28;;;;;;;19.29;100.00;102098.84;4984472;28;20042;-94
2023/05/08 09:11:27;;;;;;;52.70;33.42;;;;;;;19.30;100.00;102093.53;4986640;28;20037;-94
2023/05/08 09:13:56;;;;;;;50.97;33.28;;;;;;;19.41;100.00;102094.84;4986236;28;20045;-94
2023/05/08 09:16:23;;;;;;;51.97;31.95;;;;;;;19.38;100.00;102101.09;4988125;28;20037;-93
2023/05/08 09:18:51;;;;;;;47.53;31.55;;;;;;;19.17;100.00;102092.31;5004529;28;20045;-88
2023/05/08 09:21:17;;;;;;;50.13;31.45;;;;;;;19.24;100.00;102103.44;5001797;28;20182;-87
2023/05/08 09:23:55;;;;;;;47.10;31.50;;;;;;;19.22;100.00;102118.41;4989072;28;20121;-87
2023/05/08 09:26:35;;;;;;;46.38;30.63;;;;;;;19.07;100.00;102111.13;5003460;28;20033;-88
2023/05/08 09:29:07;;;;;;;45.75;30.95;;;;;;;18.87;100.00;102102.22;4987053;28;20407;-87
2023/05/08 09:31:40;;;;;;;47.50;30.52;;;;;;;18.86;100.00;102116.28;4999754;28;20336;-88
2023/05/08 09:34:10;;;;;;;44.77;29.43;;;;;;;18.74;100.00;102097.50;4986102;28;20042;-87
2023/05/08 09:36:38;;;;;;;43.40;29.42;;;;;;;18.74;100.00;102089.63;4988627;28;20065;-87
2023/05/08 09:39:04;;;;;;;42.67;28.95;;;;;;;18.74;100.00;102095.72;4987979;28;20615;-87
2023/05/08 09:41:29;;;;;;;42.92;28.13;;;;;;;18.74;100.00;102105.38;4987509;28;20097;-87
2023/05/08 09:44:06;;;;;;;41.85;27.75;;;;;;;18.77;100.00;102095.59;5003600;28;20108;-88
2023/05/08 09:46:40;;;;;;;46.85;29.23;;;;;;;18.75;100.00;102113.22;5003192;28;20026;-88
2023/05/08 09:49:19;;;;;;;42.30;29.27;;;;;;;18.76;100.00;102104.41;4986594;28;21023;-93
2023/05/08 09:51:53;;;;;;;42.20;28.73;;;;;;;18.77;100.00;102124.50;4985868;28;20041;-93
2023/05/08 09:54:19;;;;;;;43.80;29.38;;;;;;;18.64;100.00;102104.84;5002101;28;20443;-92
2023/05/08 09:56:44;;;;;;;45.17;29.23;;;;;;;18.60;100.00;102102.41;4987376;28;20691;-92
2023/05/08 09:59:28;;;;;;;44.78;28.55;;;;;;;18.77;100.00;102107.88;4986847;28;20038;-92
2023/05/08 10:01:54;;;;;;;42.92;29.20;;;;;;;18.93;100.00;102107.25;4986403;28;20029;-93
2023/05/08 10:04:33;;;;;;;42.90;28.05;;;;;;;19.21;100.00;102125.44;4988358;28;20447;-91
2023/05/08 10:07:07;;;;;;;42.25;28.95;;;;;;;19.19;100.00;102108.00;4988439;28;20061;-92
2023/05/08 10:09:33;;;;;;;40.85;28.65;;;;;;;19.23;100.00;102109.63;4987478;28;20073;-92
2023/05/08 10:11:58;;;;;;;42.10;28.15;;;;;;;19.33;100.00;102117.06;4986893;28;20030;-93
2023/05/08 10:14:24;;;;;;;41.00;27.25;;;;;;;19.32;100.00;102106.59;4987905;28;20157;-93
2023/05/08 10:16:51;;;;;;;41.75;28.27;;;;;;;19.29;98.34;102104.97;4986691;28;20065;-92
2023/05/08 10:19:21;;;;;;;43.85;29.67;;;;;;;19.39;100.00;102115.09;4987594;28;20052;-93
2023/05/08 10:21:52;;;;;;;42.60;29.30;;;;;;;19.41;100.00;102113.28;4988199;28;20026;-93
2023/05/08 10:24:26;;;;;;;48.45;31.95;;;;;;;19.34;100.00;102112.66;4986569;28;20034;-93
2023/05/08 10:26:56;;;;;;;44.83;31.20;;;;;;;19.41;100.00;102119.38;4986309;28;20065;-92
2023/05/08 10:29:34;;;;;;;47.60;32.53;;;;;;;19.38;100.00;102116.88;4985621;28;20391;-93
2023/05/08 10:32:02;;;;;;;45.75;30.38;;;;;;;19.43;100.00;102116.69;4981944;28;20029;-92
2023/05/08 10:34:31;;;;;;;48.92;32.03;;;;;;;19.51;100.00;102114.66;4988273;28;20042;-93
2023/05/08 10:36:57;;;;;;;42.90;31.17;;;;;;;19.70;100.00;102116.47;4984840;28;20083;-93
2023/05/08 10:39:24;;;;;;;46.15;31.83;;;;;;;19.83;100.00;102108.06;4989140;28;20483;-93
2023/05/08 10:41:50;;;;;;;43.95;31.13;;;;;;;19.98;100.00;102104.78;4987228;28;20029;-93
2023/05/08 10:44:16;;;;;;;47.85;31.48;;;;;;;20.12;100.00;102094.53;4987314;28;20022;-93
2023/05/08 10:46:56;;;;;;;46.30;31.38;;;;;;;20.27;100.00;102107.00;4986635;28;20022;-93
2023/05/08 10:49:35;;;;;;;45.85;30.17;;;;;;;20.34;100.00;102107.59;4987499;28;20442;-93
2023/05/08 10:52:21;;;;;;;45.33;30.70;;;;;;;20.40;100.00;102116.09;4988415;28;20072;-94
2023/05/08 10:54:52;;;;;;;45.97;31.35;;;;;;;20.32;100.00;102125.25;4987999;28;20029;-93
2023/05/08 10:57:18;;;;;;;45.78;30.65;;;;;;;20.25;95.63;102108.84;4987313;28;20031;-93
2023/05/08 10:59:45;;;;;;;43.10;30.98;;;;;;;20.18;95.13;102101.28;4988046;28;20040;-94
2023/05/08 11:02:11;;;;;;;46.47;30.42;;;;;;;20.12;97.44;102097.16;4988869;28;20036;-93
2023/05/08 11:04:37;;;;;;;43.70;31.10;;;;;;;20.13;96.20;102095.38;4988800;28;20039;-93
2023/05/08 11:07:03;;;;;;;45.40;31.10;;;;;;;20.26;93.56;102110.56;4987649;28;20027;-94